createdAt,value
2023-03-13T00:00:20.946Z,93.82
2023-03-13T00:01:20.931Z,93.68
2023-03-13T00:02:20.954Z,93.88
2023-03-13T00:03:20.900Z,94.34
2023-03-13T00:04:20.899Z,94.65
2023-03-13T00:05:20.954Z,94.34
2023-03-13T00:06:20.911Z,94.75
2023-03-13T00:07:20.897Z,94.85
2023-03-13T00:08:20.897Z,94.40
2023-03-13T00:09:20.877Z,94.40
2023-03-13T00:10:20.858Z,93.88
2023-03-13T00:11:20.862Z,93.57
2023-03-13T00:12:20.847Z,93.47
2023-03-13T00:13:20.871Z,93.78
2023-03-13T00:14:20.835Z,94.29
2023-03-13T00:15:20.817Z,94.29
2023-03-13T00:16:20.836Z,93.88
2023-03-13T00:17:20.792Z,94.25
2023-03-13T00:18:20.784Z,93.84
2023-03-13T00:19:20.784Z,93.63
2023-03-13T00:20:20.770Z,93.01
2023-03-13T00:21:20.782Z,92.91
2023-03-13T00:22:20.754Z,92.80
2023-03-13T00:24:20.936Z,93.53
2023-03-13T00:25:20.927Z,92.91
2023-03-13T00:26:20.924Z,93.22
2023-03-13T00:27:22.031Z,92.91
2023-03-13T00:28:22.006Z,92.95
2023-03-13T00:29:22.304Z,92.91
2023-03-13T00:30:21.973Z,93.32
2023-03-13T00:31:22.122Z,93.01
2023-03-13T00:32:22.057Z,92.80
2023-03-13T00:33:21.974Z,93.84
2023-03-13T00:34:21.975Z,93.38
2023-03-13T00:35:21.963Z,93.07
2023-03-13T00:36:21.922Z,92.80
2023-03-13T00:37:21.920Z,92.35
2023-03-13T00:38:21.954Z,92.35
2023-03-13T00:39:21.905Z,92.97
2023-03-13T00:40:21.911Z,92.66
2023-03-13T00:41:21.898Z,92.76
2023-03-13T00:42:21.893Z,92.66
2023-03-13T00:43:22.922Z,92.51
2023-03-13T00:44:21.861Z,92.41
2023-03-13T00:45:22.868Z,92.27
2023-03-13T00:46:21.962Z,91.44
2023-03-13T00:47:21.859Z,91.34
2023-03-13T00:48:21.837Z,91.48
2023-03-13T00:49:21.829Z,91.64
2023-03-13T00:50:21.818Z,91.44
2023-03-13T00:51:21.807Z,91.13
2023-03-13T00:52:21.801Z,90.92
2023-03-13T00:53:21.818Z,91.44
2023-03-13T00:54:21.801Z,91.03
2023-03-13T00:55:21.774Z,91.13
2023-03-13T00:56:21.777Z,90.99
2023-03-13T00:57:21.756Z,90.92
2023-03-13T00:58:21.748Z,90.72
2023-03-13T00:59:21.744Z,90.47
2023-03-13T01:00:21.751Z,91.09
2023-03-13T01:01:21.737Z,90.88
2023-03-13T01:02:21.808Z,90.53
2023-03-13T01:03:21.852Z,90.43
2023-03-13T01:04:21.696Z,89.81
2023-03-13T01:05:22.307Z,88.89
2023-03-13T01:06:21.690Z,89.05
2023-03-13T01:07:21.695Z,89.15
2023-03-13T01:08:22.300Z,88.84
2023-03-13T01:09:21.669Z,88.59
2023-03-13T01:10:21.663Z,88.49
2023-03-13T01:11:21.662Z,88.29
2023-03-13T01:12:21.643Z,88.08
2023-03-13T01:13:21.635Z,88.39
2023-03-13T01:14:21.620Z,87.52
2023-03-13T01:15:21.630Z,87.26
2023-03-13T01:16:21.751Z,87.63
2023-03-13T01:17:21.635Z,87.52
2023-03-13T01:18:21.614Z,87.42
2023-03-13T01:19:21.569Z,87.57
2023-03-13T01:20:21.582Z,87.52
2023-03-13T01:21:21.593Z,87.52
2023-03-13T01:22:21.575Z,87.52
2023-03-13T01:23:21.547Z,87.12
2023-03-13T01:24:21.565Z,87.26
2023-03-13T01:25:21.547Z,87.46
2023-03-13T01:26:21.544Z,88.04
2023-03-13T01:27:21.516Z,88.35
2023-03-13T01:28:21.512Z,87.77
2023-03-13T01:29:21.523Z,87.52
2023-03-13T01:30:21.489Z,87.42
2023-03-13T01:31:21.506Z,87.52
2023-03-13T01:32:21.503Z,87.42
2023-03-13T01:33:21.485Z,87.52
2023-03-13T01:34:21.464Z,87.49
2023-03-13T01:35:21.481Z,87.73
2023-03-13T01:36:21.957Z,87.52
2023-03-13T01:37:21.424Z,87.32
2023-03-13T01:38:21.432Z,87.63
2023-03-13T01:39:21.418Z,87.73
2023-03-13T01:40:21.409Z,88.24
2023-03-13T01:41:21.421Z,88.66
2023-03-13T01:42:22.332Z,87.49
2023-03-13T01:43:26.902Z,87.42
2023-03-13T01:44:23.381Z,87.49
2023-03-13T01:45:21.374Z,88.31
2023-03-13T01:46:21.491Z,88.66
2023-03-13T01:47:21.349Z,88.31
2023-03-13T01:48:21.344Z,88.31
2023-03-13T01:49:21.332Z,88.14
2023-03-13T01:50:21.344Z,88.10
2023-03-13T01:51:21.339Z,88.10
2023-03-13T01:52:21.339Z,88.35
2023-03-13T01:53:21.316Z,88.24
2023-03-13T01:54:21.304Z,88.24
2023-03-13T01:55:21.288Z,88.20
2023-03-13T01:56:21.298Z,88.00
2023-03-13T01:57:21.273Z,88.10
2023-03-13T01:58:21.284Z,88.20
2023-03-13T01:59:21.283Z,88.20
2023-03-13T02:00:21.254Z,88.41
2023-03-13T02:01:21.298Z,88.10
2023-03-13T02:02:21.291Z,88.20
2023-03-13T02:03:21.242Z,88.00
2023-03-13T02:04:21.233Z,87.90
2023-03-13T02:05:21.252Z,88.20
2023-03-13T02:06:21.200Z,88.20
2023-03-13T02:07:21.217Z,88.20
2023-03-13T02:08:21.183Z,88.31
2023-03-13T02:09:21.184Z,88.51
2023-03-13T02:10:21.176Z,88.27
2023-03-13T02:11:21.201Z,87.65
2023-03-13T02:12:21.162Z,87.24
2023-03-13T02:13:21.182Z,87.55
2023-03-13T02:14:22.378Z,87.24
2023-03-13T02:15:22.126Z,87.18
2023-03-13T02:16:21.166Z,87.04
2023-03-13T02:17:21.119Z,87.24
2023-03-13T02:18:21.133Z,86.83
2023-03-13T02:19:21.117Z,86.72
2023-03-13T02:20:21.104Z,86.93
2023-03-13T02:21:21.092Z,86.62
2023-03-13T02:22:21.108Z,86.52
2023-03-13T02:23:21.104Z,86.83
2023-03-13T02:24:21.055Z,86.62
2023-03-13T02:25:21.063Z,87.24
2023-03-13T02:26:21.067Z,86.68
2023-03-13T02:27:21.051Z,86.83
2023-03-13T02:28:21.038Z,86.79
2023-03-13T02:29:21.040Z,86.89
2023-03-13T02:30:21.033Z,86.79
2023-03-13T02:31:21.123Z,86.52
2023-03-13T02:32:21.026Z,86.52
2023-03-13T02:33:20.988Z,86.58
2023-03-13T02:34:20.986Z,86.27
2023-03-13T02:35:20.997Z,85.97
2023-03-13T02:36:20.982Z,86.38
2023-03-13T02:37:20.963Z,86.38
2023-03-13T02:38:20.976Z,86.17
2023-03-13T02:39:20.949Z,86.17
2023-03-13T02:40:20.949Z,86.17
2023-03-13T02:41:20.915Z,86.07
2023-03-13T02:42:20.919Z,86.07
2023-03-13T02:43:20.946Z,86.07
2023-03-13T02:44:20.900Z,86.13
2023-03-13T02:45:20.931Z,86.07
2023-03-13T02:46:20.910Z,86.27
2023-03-13T02:47:20.874Z,85.72
2023-03-13T02:48:20.884Z,86.07
2023-03-13T02:49:21.433Z,85.82
2023-03-13T02:50:20.861Z,86.03
2023-03-13T02:51:20.860Z,85.35
2023-03-13T02:52:20.847Z,85.41
2023-03-13T02:53:20.838Z,85.52
2023-03-13T02:54:20.817Z,85.00
2023-03-13T02:55:20.824Z,85.31
2023-03-13T02:56:20.803Z,86.48
2023-03-13T02:57:20.837Z,86.24
2023-03-13T02:58:20.797Z,85.41
2023-03-13T02:59:20.789Z,85.93
2023-03-13T03:00:20.779Z,85.93
2023-03-13T03:01:20.810Z,85.82
2023-03-13T03:02:20.795Z,85.93
2023-03-13T03:03:20.747Z,85.41
2023-03-13T03:04:20.783Z,85.89
2023-03-13T03:05:20.735Z,85.41
2023-03-13T03:06:20.740Z,85.62
2023-03-13T03:07:20.741Z,85.76
2023-03-13T03:08:20.718Z,84.90
2023-03-13T03:09:20.702Z,86.03
2023-03-13T03:10:20.687Z,85.62
2023-03-13T03:11:20.696Z,85.41
2023-03-13T03:12:21.448Z,85.82
2023-03-13T03:13:20.669Z,85.06
2023-03-13T03:14:20.663Z,84.76
2023-03-13T03:15:21.689Z,85.38
2023-03-13T03:16:20.798Z,84.96
2023-03-13T03:17:20.682Z,84.52
2023-03-13T03:18:20.645Z,84.14
2023-03-13T03:19:20.642Z,84.66
2023-03-13T03:20:20.609Z,84.66
2023-03-13T03:21:20.598Z,84.55
2023-03-13T03:22:21.455Z,84.52
2023-03-13T03:23:20.607Z,84.76
2023-03-13T03:24:20.599Z,84.66
2023-03-13T03:25:20.567Z,84.66
2023-03-13T03:26:20.601Z,84.25
2023-03-13T03:27:20.561Z,84.52
2023-03-13T03:28:20.537Z,84.66
2023-03-13T03:29:20.549Z,84.76
2023-03-13T03:30:20.549Z,84.45
2023-03-13T03:31:20.585Z,85.06
2023-03-13T03:32:20.582Z,84.61
2023-03-13T03:33:20.515Z,84.92
2023-03-13T03:34:20.482Z,84.92
2023-03-13T03:35:20.478Z,85.17
2023-03-13T03:36:20.486Z,85.85
2023-03-13T03:37:20.479Z,85.74
2023-03-13T03:38:20.464Z,85.85
2023-03-13T03:39:20.445Z,85.99
2023-03-13T03:40:20.456Z,86.05
2023-03-13T03:41:20.447Z,86.09
2023-03-13T03:42:20.425Z,86.19
2023-03-13T03:43:20.423Z,86.40
2023-03-13T03:44:20.427Z,86.25
2023-03-13T03:45:20.413Z,86.46
2023-03-13T03:46:20.475Z,86.60
2023-03-13T03:47:20.476Z,86.77
2023-03-13T03:48:20.397Z,86.46
2023-03-13T03:49:20.398Z,86.71
2023-03-13T03:50:20.368Z,86.57
2023-03-13T03:51:20.369Z,86.66
2023-03-13T03:52:20.348Z,86.77
2023-03-13T03:53:20.351Z,86.66
2023-03-13T03:54:20.369Z,86.98
2023-03-13T03:55:20.346Z,86.77
2023-03-13T03:56:20.305Z,87.18
2023-03-13T03:57:20.310Z,87.08
2023-03-13T03:58:20.305Z,86.77
2023-03-13T03:59:20.296Z,86.98
2023-03-13T04:00:20.301Z,86.77
2023-03-13T04:01:20.274Z,86.87
2023-03-13T04:02:20.342Z,87.08
2023-03-13T04:03:20.325Z,87.08
2023-03-13T04:04:20.249Z,88.21
2023-03-13T04:05:20.243Z,87.79
2023-03-13T04:06:20.233Z,87.90
2023-03-13T04:07:20.225Z,88.21
2023-03-13T04:08:20.231Z,88.00
2023-03-13T04:09:20.224Z,88.10
2023-03-13T04:10:20.227Z,88.10
2023-03-13T04:11:20.195Z,88.21
2023-03-13T04:12:20.174Z,88.72
2023-03-13T04:13:20.938Z,88.51
2023-03-13T04:14:20.178Z,88.72
2023-03-13T04:15:20.200Z,88.82
2023-03-13T04:16:20.182Z,88.92
2023-03-13T04:17:20.209Z,88.62
2023-03-13T04:18:20.138Z,89.33
2023-03-13T04:19:20.132Z,89.75
2023-03-13T04:20:20.123Z,89.78
2023-03-13T04:21:20.150Z,90.20
2023-03-13T04:22:20.103Z,90.30
2023-03-13T04:23:20.112Z,89.99
2023-03-13T04:24:20.163Z,90.50
2023-03-13T04:25:20.093Z,90.87
2023-03-13T04:26:20.061Z,90.91
2023-03-13T04:27:20.058Z,90.77
2023-03-13T04:28:20.070Z,91.02
2023-03-13T04:29:20.106Z,91.12
2023-03-13T04:30:20.045Z,90.81
2023-03-13T04:31:20.069Z,91.74
2023-03-13T04:32:20.071Z,91.84
2023-03-13T04:33:20.025Z,91.84
2023-03-13T04:34:20.010Z,91.63
2023-03-13T04:35:20.057Z,92.14
2023-03-13T04:36:20.063Z,92.46
2023-03-13T04:37:19.988Z,92.46
2023-03-13T04:38:20.019Z,92.46
2023-03-13T04:39:19.976Z,92.70
2023-03-13T04:40:20.052Z,92.04
2023-03-13T04:41:19.968Z,93.07
2023-03-13T04:42:19.948Z,93.63
2023-03-13T04:43:19.972Z,92.86
2023-03-13T04:44:19.926Z,93.42
2023-03-13T04:45:19.919Z,93.48
2023-03-13T04:46:19.968Z,93.17
2023-03-13T04:47:19.897Z,93.79
2023-03-13T04:48:19.909Z,93.38
2023-03-13T04:49:19.889Z,93.68
2023-03-13T04:50:19.878Z,93.89
2023-03-13T04:51:19.865Z,93.89
2023-03-13T04:52:19.850Z,93.79
2023-03-13T04:53:19.864Z,93.99
2023-03-13T04:54:19.843Z,94.92
2023-03-13T04:55:19.839Z,93.99
2023-03-13T04:56:26.803Z,93.99
2023-03-13T04:57:20.813Z,94.30
2023-03-13T04:58:19.827Z,94.40
2023-03-13T04:59:19.818Z,94.30
2023-03-13T05:00:19.795Z,94.51
2023-03-13T05:01:19.809Z,94.30
2023-03-13T05:02:19.776Z,94.30
2023-03-13T05:03:19.775Z,94.45
2023-03-13T05:04:19.787Z,94.30
2023-03-13T05:05:19.783Z,94.30
2023-03-13T05:06:19.747Z,94.61
2023-03-13T05:07:19.743Z,94.40
2023-03-13T05:08:19.763Z,94.61
2023-03-13T05:09:19.738Z,94.30
2023-03-13T05:10:19.729Z,94.20
2023-03-13T05:11:19.731Z,94.40
2023-03-13T05:12:20.369Z,94.30
2023-03-13T05:13:19.698Z,94.30
2023-03-13T05:14:19.695Z,93.99
2023-03-13T05:15:19.692Z,94.10
2023-03-13T05:16:19.729Z,93.99
2023-03-13T05:17:19.663Z,94.30
2023-03-13T05:18:19.669Z,94.81
2023-03-13T05:19:19.676Z,94.67
2023-03-13T05:20:19.700Z,94.40
2023-03-13T05:21:19.633Z,94.10
2023-03-13T05:22:19.633Z,94.20
2023-03-13T05:23:19.623Z,94.51
2023-03-13T05:24:19.604Z,94.10
2023-03-13T05:25:19.601Z,94.71
2023-03-13T05:26:19.588Z,94.30
2023-03-13T05:27:19.590Z,94.71
2023-03-13T05:28:19.585Z,94.05
2023-03-13T05:29:19.568Z,93.99
2023-03-13T05:30:19.581Z,94.10
2023-03-13T05:31:19.579Z,94.61
2023-03-13T05:32:19.560Z,94.10
2023-03-13T05:33:19.540Z,93.99
2023-03-13T05:34:19.539Z,94.10
2023-03-13T05:35:19.526Z,93.99
2023-03-13T05:36:19.518Z,94.20
2023-03-13T05:37:19.501Z,94.10
2023-03-13T05:38:19.496Z,94.40
2023-03-13T05:39:19.491Z,94.10
2023-03-13T05:40:19.478Z,94.15
2023-03-13T05:41:19.507Z,93.95
2023-03-13T05:42:19.458Z,93.17
2023-03-13T05:43:19.450Z,93.79
2023-03-13T05:44:19.458Z,92.61
2023-03-13T05:45:19.428Z,93.23
2023-03-13T05:46:19.442Z,93.64
2023-03-13T05:47:19.432Z,93.44
2023-03-13T05:48:19.441Z,93.85
2023-03-13T05:49:19.417Z,93.54
2023-03-13T05:50:19.439Z,94.87
2023-03-13T05:51:19.390Z,94.05
2023-03-13T05:52:19.399Z,93.70
2023-03-13T05:53:19.394Z,93.95
2023-03-13T05:54:19.371Z,94.73
2023-03-13T05:55:19.410Z,93.49
2023-03-13T05:56:19.351Z,94.83
2023-03-13T05:57:19.360Z,93.29
2023-03-13T05:58:19.343Z,93.19
2023-03-13T05:59:19.342Z,92.88
2023-03-13T06:00:19.957Z,92.88
2023-03-13T06:01:19.326Z,93.04
2023-03-13T06:02:19.300Z,92.63
2023-03-13T06:03:19.373Z,92.43
2023-03-13T06:04:19.461Z,93.15
2023-03-13T06:05:19.264Z,92.94
2023-03-13T06:06:20.305Z,93.15
2023-03-13T06:07:19.281Z,93.35
2023-03-13T06:08:21.447Z,92.12
2023-03-13T06:09:19.269Z,92.43
2023-03-13T06:10:19.292Z,93.25
2023-03-13T06:11:19.252Z,92.43
2023-03-13T06:12:19.874Z,92.43
2023-03-13T06:13:20.401Z,92.28
2023-03-13T06:14:20.225Z,93.00
2023-03-13T06:15:19.206Z,92.83
2023-03-13T06:16:19.226Z,93.10
2023-03-13T06:17:19.828Z,92.28
2023-03-13T06:18:19.231Z,91.97
2023-03-13T06:19:19.186Z,92.90
2023-03-13T06:20:19.172Z,93.10
2023-03-13T06:21:19.139Z,93.10
2023-03-13T06:22:19.151Z,93.10
2023-03-13T06:23:19.975Z,92.96
2023-03-13T06:24:19.133Z,92.34
2023-03-13T06:25:19.172Z,92.08
2023-03-13T06:26:19.106Z,92.14
2023-03-13T06:27:19.111Z,92.34
2023-03-13T06:28:19.097Z,92.96
2023-03-13T06:29:20.015Z,93.00
2023-03-13T06:30:19.123Z,92.85
2023-03-13T06:31:19.163Z,93.26
2023-03-13T06:32:21.193Z,92.14
2023-03-13T06:33:19.120Z,92.85
2023-03-13T06:34:19.061Z,92.85
2023-03-13T06:35:19.050Z,92.96
2023-03-13T06:36:19.548Z,93.06
2023-03-13T06:37:19.037Z,93.57
2023-03-13T06:38:19.008Z,92.91
2023-03-13T06:39:19.007Z,92.65
2023-03-13T06:40:19.010Z,92.65
2023-03-13T06:41:19.010Z,93.01
2023-03-13T06:42:19.832Z,92.91
2023-03-13T06:43:19.971Z,91.78
2023-03-13T06:44:18.941Z,92.81
2023-03-13T06:45:19.501Z,93.01
2023-03-13T06:46:19.047Z,92.30
2023-03-13T06:47:19.013Z,93.06
2023-03-13T06:48:18.939Z,92.50
2023-03-13T06:49:18.970Z,92.81
2023-03-13T06:50:18.939Z,92.60
2023-03-13T06:51:18.925Z,92.60
2023-03-13T06:52:20.289Z,92.81
2023-03-13T06:54:27.035Z,92.91
2023-03-13T06:55:28.012Z,93.12
2023-03-13T06:56:28.713Z,92.40
2023-03-13T06:57:28.099Z,92.50
2023-03-13T06:58:32.530Z,92.60
2023-03-13T06:59:29.115Z,92.50
2023-03-13T07:00:28.887Z,92.60
2023-03-13T07:01:28.176Z,92.60
2023-03-13T07:02:28.117Z,92.60
2023-03-13T07:03:28.163Z,93.18
2023-03-13T07:04:28.049Z,92.66
2023-03-13T07:05:28.041Z,92.87
2023-03-13T07:06:28.037Z,92.05
2023-03-13T07:07:31.997Z,92.01
2023-03-13T07:08:29.061Z,92.15
2023-03-13T07:09:28.040Z,91.03
2023-03-13T07:10:28.018Z,90.99
2023-03-13T07:11:28.010Z,91.54
2023-03-13T07:12:27.976Z,91.54
2023-03-13T07:13:28.029Z,91.39
2023-03-13T07:14:28.018Z,90.47
2023-03-13T07:15:28.017Z,90.88
2023-03-13T07:16:28.045Z,90.78
2023-03-13T07:17:28.174Z,91.50
2023-03-13T07:18:27.971Z,91.09
2023-03-13T07:19:27.965Z,90.88
2023-03-13T07:20:28.061Z,90.68
2023-03-13T07:21:27.926Z,90.58
2023-03-13T07:22:27.953Z,90.88
2023-03-13T07:23:27.901Z,90.47
2023-03-13T07:24:27.979Z,89.82
2023-03-13T07:25:27.907Z,89.61
2023-03-13T07:26:27.997Z,89.82
2023-03-13T07:27:27.908Z,90.02
2023-03-13T07:28:27.896Z,89.82
2023-03-13T07:29:27.878Z,89.92
2023-03-13T07:30:27.847Z,90.19
2023-03-13T07:31:27.931Z,89.47
2023-03-13T07:32:27.900Z,89.47
2023-03-13T07:33:27.913Z,89.98
2023-03-13T07:34:27.827Z,89.17
2023-03-13T07:35:27.798Z,89.17
2023-03-13T07:36:28.670Z,89.78
2023-03-13T07:37:27.835Z,88.96
2023-03-13T07:38:27.840Z,89.12
2023-03-13T07:39:27.828Z,88.51
2023-03-13T07:40:27.799Z,89.26
2023-03-13T07:41:27.759Z,88.71
2023-03-13T07:42:27.817Z,88.85
2023-03-13T07:43:27.761Z,88.00
2023-03-13T07:44:27.770Z,88.61
2023-03-13T07:45:27.762Z,88.61
2023-03-13T07:46:27.722Z,89.32
2023-03-13T07:47:27.712Z,88.61
2023-03-13T07:48:27.748Z,89.12
2023-03-13T07:49:28.750Z,88.31
2023-03-13T07:50:27.867Z,88.65
2023-03-13T07:51:40.761Z,88.24
2023-03-13T07:52:29.710Z,88.51
2023-03-13T07:53:27.674Z,89.12
2023-03-13T07:54:27.655Z,88.65
2023-03-13T07:55:27.683Z,88.20
2023-03-13T07:56:27.642Z,88.61
2023-03-13T07:57:27.734Z,88.61
2023-03-13T07:58:27.667Z,89.32
2023-03-13T07:59:27.640Z,89.32
2023-03-13T08:00:27.630Z,87.90
2023-03-13T08:01:30.546Z,88.92
2023-03-13T08:02:29.623Z,88.57
2023-03-13T08:03:27.642Z,88.98
2023-03-13T08:04:28.210Z,88.06
2023-03-13T08:05:28.226Z,88.57
2023-03-13T08:06:27.590Z,88.17
2023-03-13T08:07:28.560Z,88.67
2023-03-13T08:08:27.540Z,88.67
2023-03-13T08:09:27.619Z,88.37
2023-03-13T08:10:27.652Z,88.26
2023-03-13T08:11:27.559Z,88.37
2023-03-13T08:12:27.559Z,88.43
2023-03-13T08:13:27.490Z,88.12
2023-03-13T08:14:27.577Z,87.41
2023-03-13T08:15:27.501Z,89.04
2023-03-13T08:16:28.207Z,88.22
2023-03-13T08:17:28.111Z,88.39
2023-03-13T08:18:28.233Z,88.12
2023-03-13T08:19:27.726Z,88.12
2023-03-13T08:20:27.604Z,88.63
2023-03-13T08:21:29.240Z,88.08
2023-03-13T08:22:27.497Z,87.88
2023-03-13T08:23:27.428Z,87.88
2023-03-13T08:24:27.444Z,87.67
2023-03-13T08:25:27.416Z,87.77
2023-03-13T08:26:27.447Z,87.82
2023-03-13T08:27:27.404Z,87.77
2023-03-13T08:28:27.378Z,85.94
2023-03-13T08:29:27.437Z,87.06
2023-03-13T08:30:27.498Z,87.88
2023-03-13T08:31:27.365Z,86.76
2023-03-13T08:32:27.412Z,87.16
2023-03-13T08:33:27.348Z,87.73
2023-03-13T08:34:27.390Z,87.84
2023-03-13T08:35:27.391Z,88.04
2023-03-13T08:36:27.342Z,88.59
2023-03-13T08:37:28.568Z,88.69
2023-03-13T08:38:27.295Z,88.49
2023-03-13T08:39:27.309Z,87.84
2023-03-13T08:40:28.308Z,88.04
2023-03-13T08:41:27.290Z,87.84
2023-03-13T08:42:28.117Z,87.63
2023-03-13T08:43:27.301Z,87.73
2023-03-13T08:44:29.100Z,87.73
2023-03-13T08:45:27.290Z,87.84
2023-03-13T08:46:27.286Z,88.04
2023-03-13T08:47:27.244Z,88.04
2023-03-13T08:48:27.712Z,87.73
2023-03-13T08:49:27.253Z,87.84
2023-03-13T08:50:27.236Z,87.63
2023-03-13T08:51:27.216Z,87.53
2023-03-13T08:52:27.231Z,88.04
2023-03-13T08:53:27.183Z,87.73
2023-03-13T08:54:27.188Z,87.73
2023-03-13T08:55:28.072Z,87.49
2023-03-13T08:56:27.212Z,87.49
2023-03-13T08:57:27.168Z,87.38
2023-03-13T08:58:27.145Z,87.38
2023-03-13T08:59:27.166Z,87.29
2023-03-13T09:00:28.149Z,87.38
2023-03-13T09:01:28.148Z,87.49
2023-03-13T09:02:28.640Z,87.49
2023-03-13T09:03:27.778Z,87.38
2023-03-13T09:04:27.134Z,86.68
2023-03-13T09:05:27.107Z,86.47
2023-03-13T09:06:27.089Z,86.37
2023-03-13T09:07:27.088Z,86.37
2023-03-13T09:08:27.082Z,86.47
2023-03-13T09:09:27.613Z,86.43
2023-03-13T09:10:27.079Z,86.37
2023-03-13T09:11:27.588Z,86.77
2023-03-13T09:12:31.229Z,86.43
2023-03-13T09:13:28.667Z,86.13
2023-03-13T09:14:27.038Z,86.37
2023-03-13T09:15:27.708Z,86.37
2023-03-13T09:16:27.014Z,86.47
2023-03-13T09:17:27.042Z,86.68
2023-03-13T09:18:27.064Z,86.47
2023-03-13T09:19:26.985Z,87.49
2023-03-13T09:20:26.983Z,86.88
2023-03-13T09:21:28.631Z,86.74
2023-03-13T09:22:26.985Z,86.63
2023-03-13T09:23:26.957Z,86.43
2023-03-13T09:24:26.981Z,86.02
2023-03-13T09:25:26.932Z,85.72
2023-03-13T09:26:26.927Z,86.13
2023-03-13T09:27:26.940Z,86.08
2023-03-13T09:28:26.916Z,85.41
2023-03-13T09:29:26.898Z,85.72
2023-03-13T09:30:26.884Z,85.37
2023-03-13T09:31:26.955Z,84.97
2023-03-13T09:32:26.904Z,85.27
2023-03-13T09:33:26.895Z,84.86
2023-03-13T09:34:26.869Z,84.66
2023-03-13T09:35:26.848Z,84.86
2023-03-13T09:36:26.944Z,85.17
2023-03-13T09:37:26.838Z,84.66
2023-03-13T09:38:26.855Z,85.33
2023-03-13T09:39:26.851Z,84.72
2023-03-13T09:40:26.813Z,85.09
2023-03-13T09:41:26.792Z,84.03
2023-03-13T09:42:27.824Z,83.36
2023-03-13T09:43:26.807Z,84.03
2023-03-13T09:44:26.818Z,83.53
2023-03-13T09:45:27.650Z,83.32
2023-03-13T09:46:26.823Z,82.67
2023-03-13T09:47:26.747Z,82.78
2023-03-13T09:48:26.737Z,82.37
2023-03-13T09:49:26.745Z,82.33
2023-03-13T09:50:26.774Z,81.62
2023-03-13T09:51:26.731Z,81.38
2023-03-13T09:52:26.746Z,80.77
2023-03-13T09:53:26.752Z,80.73
2023-03-13T09:54:26.755Z,80.53
2023-03-13T09:55:26.685Z,79.82
2023-03-13T09:56:26.708Z,79.72
2023-03-13T09:57:26.666Z,79.51
2023-03-13T09:58:26.649Z,80.16
2023-03-13T09:59:26.650Z,80.66
2023-03-13T10:00:26.671Z,80.46
2023-03-13T10:01:26.709Z,80.66
2023-03-13T10:02:26.630Z,79.85
2023-03-13T10:03:27.133Z,80.06
2023-03-13T10:04:26.682Z,79.41
2023-03-13T10:05:26.629Z,79.61
2023-03-13T10:06:26.586Z,77.38
2023-03-13T10:07:26.565Z,79.11
2023-03-13T10:08:26.573Z,79.21
2023-03-13T10:09:26.573Z,79.65
2023-03-13T10:10:26.550Z,80.06
2023-03-13T10:11:26.543Z,79.75
2023-03-13T10:12:26.559Z,79.90
2023-03-13T10:13:26.541Z,80.91
2023-03-13T10:14:26.565Z,80.91
2023-03-13T10:15:26.513Z,81.35
2023-03-13T10:16:26.561Z,81.86
2023-03-13T10:17:26.520Z,81.35
2023-03-13T10:18:26.534Z,80.94
2023-03-13T10:19:26.506Z,80.84
2023-03-13T10:20:26.489Z,81.86
2023-03-13T10:21:26.505Z,82.20
2023-03-13T10:22:26.490Z,82.14
2023-03-13T10:23:26.472Z,82.20
2023-03-13T10:24:26.445Z,81.49
2023-03-13T10:25:26.435Z,80.98
2023-03-13T10:26:26.460Z,81.70
2023-03-13T10:27:26.450Z,81.29
2023-03-13T10:28:26.423Z,81.59
2023-03-13T10:29:26.450Z,81.39
2023-03-13T10:30:26.401Z,81.39
2023-03-13T10:31:26.419Z,81.39
2023-03-13T10:32:26.388Z,81.49
2023-03-13T10:33:27.239Z,81.19
2023-03-13T10:34:26.382Z,81.70
2023-03-13T10:35:27.309Z,81.66
2023-03-13T10:36:26.776Z,81.59
2023-03-13T10:37:26.377Z,81.59
2023-03-13T10:38:26.327Z,81.70
2023-03-13T10:39:26.319Z,81.39
2023-03-13T10:40:26.314Z,81.45
2023-03-13T10:41:26.346Z,81.35
2023-03-13T10:42:26.308Z,81.79
2023-03-13T10:43:27.256Z,82.10
2023-03-13T10:44:27.177Z,81.79
2023-03-13T10:45:26.279Z,81.49
2023-03-13T10:46:26.296Z,81.70
2023-03-13T10:47:26.254Z,81.49
2023-03-13T10:48:26.269Z,81.90
2023-03-13T10:49:26.280Z,81.59
2023-03-13T10:50:26.253Z,81.90
2023-03-13T10:51:27.228Z,81.90
2023-03-13T10:52:26.211Z,81.79
2023-03-13T10:53:26.209Z,81.90
2023-03-13T10:54:26.191Z,81.66
2023-03-13T10:55:26.205Z,81.76
2023-03-13T10:56:26.203Z,81.76
2023-03-13T10:57:26.167Z,81.70
2023-03-13T10:58:26.201Z,81.76
2023-03-13T10:59:26.191Z,81.76
2023-03-13T11:00:26.147Z,82.00
2023-03-13T11:01:26.161Z,82.00
2023-03-13T11:02:26.208Z,82.10
2023-03-13T11:03:26.419Z,81.90
2023-03-13T11:04:26.236Z,82.00
2023-03-13T11:05:26.277Z,82.06
2023-03-13T11:06:26.115Z,81.29
2023-03-13T11:07:26.104Z,81.25
2023-03-13T11:08:26.144Z,81.35
2023-03-13T11:09:26.088Z,81.31
2023-03-13T11:10:26.095Z,80.91
2023-03-13T11:11:26.092Z,80.36
2023-03-13T11:12:26.087Z,80.16
2023-03-13T11:13:36.101Z,79.58
2023-03-13T11:14:28.608Z,78.33
2023-03-13T11:15:26.103Z,77.92
2023-03-13T11:16:26.073Z,77.88
2023-03-13T11:17:26.051Z,76.46
2023-03-13T11:18:26.029Z,76.03
2023-03-13T11:19:26.664Z,76.16
2023-03-13T11:20:26.030Z,75.92
2023-03-13T11:21:25.993Z,75.28
2023-03-13T11:22:26.011Z,74.98
2023-03-13T11:23:25.967Z,74.67
2023-03-13T11:24:25.983Z,75.21
2023-03-13T11:25:27.683Z,74.91
2023-03-13T11:26:25.928Z,75.82
2023-03-13T11:27:26.752Z,75.76
2023-03-13T11:28:25.949Z,75.85
2023-03-13T11:29:25.939Z,75.55
2023-03-13T11:30:25.920Z,75.55
2023-03-13T11:31:26.024Z,76.26
2023-03-13T11:32:26.351Z,76.67
2023-03-13T11:33:25.930Z,76.87
2023-03-13T11:34:25.894Z,76.77
2023-03-13T11:35:25.870Z,76.36
2023-03-13T11:36:25.858Z,75.85
2023-03-13T11:37:25.862Z,75.76
2023-03-13T11:38:25.853Z,76.36
2023-03-13T11:39:27.794Z,75.65
2023-03-13T11:40:25.838Z,76.12
2023-03-13T11:41:25.906Z,76.36
2023-03-13T11:42:25.830Z,76.26
2023-03-13T11:43:26.170Z,76.26
2023-03-13T11:44:27.276Z,75.76
2023-03-13T11:45:25.821Z,76.67
2023-03-13T11:46:25.846Z,76.90
2023-03-13T11:47:25.800Z,77.37
2023-03-13T11:48:25.858Z,77.07
2023-03-13T11:49:25.759Z,76.97
2023-03-13T11:50:25.767Z,77.07
2023-03-13T11:51:25.769Z,76.97
2023-03-13T11:52:25.744Z,76.36
2023-03-13T11:53:26.738Z,76.23
2023-03-13T11:54:25.724Z,76.03
2023-03-13T11:55:26.242Z,75.85
2023-03-13T11:56:26.288Z,76.06
2023-03-13T11:57:26.255Z,76.26
2023-03-13T11:58:25.670Z,75.85
2023-03-13T11:59:25.673Z,75.92
2023-03-13T12:00:25.673Z,75.21
2023-03-13T12:01:25.670Z,76.12
2023-03-13T12:02:25.664Z,76.32
2023-03-13T12:03:25.678Z,75.62
2023-03-13T12:04:25.646Z,76.03
2023-03-13T12:05:26.307Z,75.79
2023-03-13T12:06:28.660Z,76.32
2023-03-13T12:07:26.624Z,75.52
2023-03-13T12:08:25.651Z,75.72
2023-03-13T12:09:28.078Z,75.99
2023-03-13T12:10:26.602Z,75.99
2023-03-13T12:11:27.194Z,75.82
2023-03-13T12:12:25.668Z,75.72
2023-03-13T12:13:25.811Z,76.43
2023-03-13T12:14:25.572Z,76.67
2023-03-13T12:15:25.586Z,75.92
2023-03-13T12:16:28.228Z,76.43
2023-03-13T12:17:27.330Z,76.23
2023-03-13T12:18:25.576Z,76.63
2023-03-13T12:19:26.330Z,76.12
2023-03-13T12:20:26.177Z,76.63
2023-03-13T12:21:30.273Z,76.32
2023-03-13T12:22:25.528Z,76.23
2023-03-13T12:23:25.539Z,76.12
2023-03-13T12:24:25.484Z,75.99
2023-03-13T12:25:25.577Z,75.79
2023-03-13T12:26:26.459Z,75.58
2023-03-13T12:27:25.474Z,75.79
2023-03-13T12:28:25.566Z,76.32
2023-03-13T12:29:25.439Z,75.99
2023-03-13T12:30:26.347Z,75.99
2023-03-13T12:31:25.462Z,75.58
2023-03-13T12:32:25.505Z,75.45
2023-03-13T12:33:25.420Z,75.75
2023-03-13T12:34:26.224Z,75.85
2023-03-13T12:35:25.412Z,75.65
2023-03-13T12:36:25.453Z,75.99
2023-03-13T12:37:25.397Z,76.09
2023-03-13T12:38:25.370Z,75.65
2023-03-13T12:39:25.410Z,75.99
2023-03-13T12:40:26.183Z,75.55
2023-03-13T12:41:26.201Z,75.99
2023-03-13T12:42:25.346Z,74.43
2023-03-13T12:43:25.338Z,76.05
2023-03-13T12:44:25.794Z,75.45
2023-03-13T12:45:25.391Z,75.51
2023-03-13T12:46:25.350Z,75.21
2023-03-13T12:47:27.870Z,74.40
2023-03-13T12:48:26.438Z,74.46
2023-03-13T12:49:25.291Z,74.70
2023-03-13T12:50:25.275Z,75.07
2023-03-13T12:51:25.307Z,75.21
2023-03-13T12:52:25.801Z,74.40
2023-03-13T12:53:25.278Z,75.51
2023-03-13T12:54:25.771Z,75.85